CPX329 Details

Departure: March Air Reserve Base (KRIV)
Arrival: Charlotte/Douglas International Airport (KCLT)
Route: TRM J134 DRK J6 IRW KM33G SPKER NEWBB TAZZA FILPZ3


Current Weather Information
KRIV 260058Z AUTO 30010KT 10SM CLR 27/02 A2994 RMK AO2 SLP131 T02700021
KCLT 260152Z 23006KT 10SM FEW060 SCT160 OVC190 22/14 A2988 RMK AO2 SLP110 T02170139